Página principal
METAR-TAF:

METAR-TAF

Aeroportos :

Lançarote, Espanha

latitude: 28-57N, longitude: 013-36W, altura: 14 m

Observação actual do tempo

O boletim foi feito há 30 minutos, às 17:00 UTC
Vento 9 kt de nordeste, variando entre norte e este
Temperatura 26°C
Humidade 74%
Pressão 1015 hPa
Visibilidade 10 km ou mais
Poucas nuvensa uma altura de 3000 ft

METAR: GCRR 181700Z 04009KT 350V090 9999 FEW030 26/21 Q1015

Hora: 18:30 (17:30 UTC)

Previsão

O boletim foi feito há 3 horas e 30 minutos, às 14:00 UTC
Previsão válida de 18 às 15 UTC a 19 às 15 UTC
Vento 13 kt de es-nordeste
Visibilidade 10 km ou mais
Nuvens dispersasa uma altura de 3000 ft
Tornando-se
de 18 às 18 UTC a 18 às 20 UTC
Vento 8 kt de norte

TAF: GCRR 181400Z 1815/1915 07013KT 9999 SCT030 TX30/1914Z TN23/1905Z BECMG 1818/1820 01008KT

Observações e previsões do tempo de mais de 4000 aeroportos (mensagens METAR e TAF).

As estações disponíveis são os pontos amarelos e vermelhos sobre o mapa.

Mova o rato sobre o mapa para ver o nome da estação.

Depois clique no ponto para visualizar as observações e previsões meteorológicas.

Para alterar o mapa : clique nos botões verdes com uma cruz preta para aumentar o zoom; no botão verde com uma pitada de zoom; ou nas setas verdes para mapas adjacentes.


METAR-TAF: